Time;durP1;ratioP1;P1;durP2;ratioP2;P2;SDS_P1;SDS_P2;PMS_P1;PMS_P2;Temp;Humidity;BMP_temperature;BMP_pressure;BME280_temperature;BME280_humidity;BME280_pressure;Samples;Min_cycle;Max_cycle;Signal;HPM_P1;HPM_P2
2022/11/23 00:00:58;;;;;;;;;;;;;;;-142.75;100.00;76135.28;5019759;28;20124;-66
2022/11/23 00:03:23;;;;;;;30.55;8.52;;;;;;;-142.75;100.00;76137.25;5017049;28;19917;-66
2022/11/23 00:05:49;;;;;;;15.83;8.10;;;;;;;-142.75;100.00;76133.31;5019234;28;20029;-66
2022/11/23 00:08:14;;;;;;;19.83;8.32;;;;;;;-142.75;100.00;76133.31;5016987;28;20705;-66
2022/11/23 00:10:40;;;;;;;20.92;8.25;;;;;;;-142.75;100.00;76129.38;5018729;28;20028;-66
2022/11/23 00:13:05;;;;;;;18.02;8.63;;;;;;;-142.75;100.00;76129.38;5018881;28;20389;-66
2022/11/23 00:15:31;;;;;;;16.42;7.72;;;;;;;-142.75;100.00;76129.38;5017540;28;22288;-66
2022/11/23 00:17:58;;;;;;;21.63;8.32;;;;;;;-142.75;100.00;76135.28;5016716;28;20018;-66
2022/11/23 00:20:24;;;;;;;17.95;7.95;;;;;;;-142.75;100.00;76137.25;5017589;28;20527;-66
2022/11/23 00:22:49;;;;;;;16.85;7.63;;;;;;;-142.75;100.00;76141.19;5018944;28;20135;-66
2022/11/23 00:25:14;;;;;;;17.17;8.07;;;;;;;-142.75;100.00;76133.31;5018315;28;20021;-66
2022/11/23 00:27:40;;;;;;;22.00;7.65;;;;;;;-142.75;100.00;76137.25;5018037;28;20288;-66
2022/11/23 00:30:05;;;;;;;21.58;7.55;;;;;;;-142.75;100.00;76137.25;5018719;28;20040;-65
2022/11/23 00:32:31;;;;;;;17.42;7.22;;;;;;;-142.75;100.00;76145.13;5018295;28;20080;-66
2022/11/23 00:34:56;;;;;;;19.58;7.07;;;;;;;-142.75;100.00;76145.13;5018642;28;20112;-66
2022/11/23 00:37:21;;;;;;;18.02;7.07;;;;;;;-142.75;100.00;76139.22;5017434;28;20048;-65
2022/11/23 00:39:46;;;;;;;17.95;6.95;;;;;;;-142.75;100.00;76143.16;5018484;28;20138;-66
2022/11/23 00:42:12;;;;;;;16.42;6.35;;;;;;;-142.75;100.00;76137.25;5018197;28;20040;-66
2022/11/23 00:44:37;;;;;;;14.95;7.40;;;;;;;-142.75;100.00;76145.13;5018230;28;20024;-66
2022/11/23 00:47:02;;;;;;;21.27;7.53;;;;;;;-142.75;100.00;76145.13;5029129;28;20025;-65
2022/11/23 00:49:27;;;;;;;17.08;6.75;;;;;;;-142.75;100.00;76149.06;5038066;28;20171;-65
2022/11/23 00:51:53;;;;;;;22.23;6.78;;;;;;;-142.75;100.00;76149.06;5038195;28;20391;-66
2022/11/23 00:54:18;;;;;;;12.87;7.27;;;;;;;-142.75;100.00;76160.88;5037695;28;20024;-66
2022/11/23 00:56:43;;;;;;;13.57;7.23;;;;;;;-142.75;100.00;76149.06;5037184;28;20294;-66
2022/11/23 00:59:09;;;;;;;16.20;7.70;;;;;;;-142.75;100.00;76141.19;5036780;28;20769;-66
2022/11/23 01:01:38;;;;;;;15.27;6.83;;;;;;;-142.75;100.00;76137.25;5025229;28;20338;-65
2022/11/23 01:04:05;;;;;;;18.75;6.47;;;;;;;-142.75;100.00;76127.41;5018230;28;20282;-66
2022/11/23 01:06:36;;;;;;;20.63;7.22;;;;;;;-142.75;100.00;76127.41;5017986;28;20025;-65
2022/11/23 01:09:19;;;;;;;23.33;7.93;;;;;;;-142.75;100.00;76137.25;5018443;28;20030;-66
2022/11/23 01:11:44;;;;;;;23.40;7.88;;;;;;;-142.75;100.00;76125.44;5018016;28;20029;-66
2022/11/23 01:14:11;;;;;;;19.17;7.20;;;;;;;-142.75;100.00;76129.38;5017800;28;20021;-66
2022/11/23 01:16:39;;;;;;;14.15;6.05;;;;;;;-142.75;100.00;76137.25;5017561;28;20033;-65
2022/11/23 01:19:08;;;;;;;15.73;6.25;;;;;;;-142.75;100.00;76139.22;5016816;28;20080;-65
2022/11/23 01:21:34;;;;;;;21.23;6.93;;;;;;;-142.75;100.00;76156.94;5037764;28;20086;-66
2022/11/23 01:24:03;;;;;;;16.45;6.38;;;;;;;-142.75;100.00;76162.84;5034246;28;20491;-65
2022/11/23 01:26:28;;;;;;;25.38;5.55;;;;;;;-142.75;100.00;76172.69;5017762;28;20072;-66
2022/11/23 01:28:53;;;;;;;16.03;6.33;;;;;;;-142.75;100.00;76176.63;5023003;28;20065;-65
2022/11/23 01:31:21;;;;;;;15.53;5.90;;;;;;;-142.75;100.00;76176.63;5017796;28;20330;-66
2022/11/23 01:33:47;;;;;;;15.30;4.82;;;;;;;-142.75;100.00;76180.56;5021718;28;20962;-65
2022/11/23 01:36:14;;;;;;;10.18;4.78;;;;;;;-142.75;100.00;76186.47;5020053;28;20037;-67
2022/11/23 01:38:41;;;;;;;12.00;4.95;;;;;;;-142.75;100.00;76176.63;5021021;28;20029;-66
2022/11/23 01:41:12;;;;;;;14.68;5.00;;;;;;;-142.75;100.00;76186.47;5021652;28;20033;-65
2022/11/23 01:43:38;;;;;;;12.15;5.05;;;;;;;-142.75;100.00;76186.47;5021579;28;20913;-66
2022/11/23 01:46:04;;;;;;;20.05;5.13;;;;;;;-142.75;100.00;76192.38;5021622;28;20040;-65
2022/11/23 01:48:32;;;;;;;12.82;4.90;;;;;;;-142.75;100.00;76196.31;5020476;28;20033;-65
2022/11/23 01:51:01;;;;;;;12.25;4.22;;;;;;;-142.75;100.00;76200.25;5021702;28;20065;-66
2022/11/23 01:53:28;;;;;;;17.73;6.22;;;;;;;-142.75;100.00;76196.31;5019669;28;20523;-66
2022/11/23 01:55:57;;;;;;;17.45;5.13;;;;;;;-142.75;100.00;76204.16;5021933;28;20038;-66
2022/11/23 01:58:24;;;;;;;11.80;4.22;;;;;;;-142.75;100.00;76202.19;5020836;28;20621;-66
2022/11/23 02:00:50;;;;;;;17.30;4.90;;;;;;;-142.75;100.00;76204.16;5021685;28;20029;-66
2022/11/23 02:03:16;;;;;;;12.27;5.15;;;;;;;-142.75;100.00;76198.28;5021161;28;20045;-66
2022/11/23 02:05:45;;;;;;;16.55;4.38;;;;;;;-142.75;100.00;76210.06;5021051;28;20075;-66
2022/11/23 02:08:13;;;;;;;10.93;4.28;;;;;;;-142.75;100.00;76214.00;5020148;28;20572;-67
2022/11/23 02:10:38;;;;;;;16.95;4.28;;;;;;;-142.75;100.00;76215.97;5019922;28;20420;-66
2022/11/23 02:13:06;;;;;;;16.92;5.68;;;;;;;-142.75;100.00;76219.91;5021035;28;20029;-66
2022/11/23 02:15:34;;;;;;;12.17;5.00;;;;;;;-142.75;100.00;76221.88;5031802;28;20040;-66
2022/11/23 02:18:01;;;;;;;12.98;5.22;;;;;;;-142.75;100.00;76231.72;5040441;28;20082;-66
2022/11/23 02:20:27;;;;;;;15.47;4.73;;;;;;;-142.75;100.00;76249.44;5040477;28;20033;-66
2022/11/23 02:23:25;;;;;;;12.02;4.45;;;;;;;-142.75;100.00;76249.44;5040623;28;20094;-66
2022/11/23 02:26:15;;;;;;;18.30;4.70;;;;;;;-142.75;100.00;76247.47;5019835;28;20021;-66
2022/11/23 02:28:48;;;;;;;13.43;5.28;;;;;;;-142.75;100.00;76237.63;5020728;28;20407;-66
2022/11/23 02:31:13;;;;;;;14.50;5.10;;;;;;;-142.75;100.00;76247.47;5021141;28;20037;-66
2022/11/23 02:33:39;;;;;;;17.33;4.85;;;;;;;-142.75;100.00;76243.53;5018445;28;20083;-66
2022/11/23 02:36:26;;;;;;;13.38;5.47;;;;;;;-142.75;100.00;76243.53;5020585;28;20037;-65
2022/11/23 02:38:53;;;;;;;15.45;6.45;;;;;;;-142.75;100.00;76243.53;5020384;28;20029;-66
2022/11/23 02:41:19;;;;;;;15.90;6.07;;;;;;;-142.75;100.00;76241.56;5020621;28;20045;-66
2022/11/23 02:43:48;;;;;;;14.43;6.30;;;;;;;-142.75;100.00;76237.63;5019328;28;20381;-66
2022/11/23 02:46:14;;;;;;;14.55;7.10;;;;;;;-142.75;100.00;76233.69;5020658;28;20036;-66
2022/11/23 02:48:39;;;;;;;16.83;6.28;;;;;;;-142.75;100.00;76239.59;5019537;28;20033;-66
2022/11/23 02:51:04;;;;;;;15.77;7.38;;;;;;;-142.75;100.00;76235.66;5019092;28;20112;-66
2022/11/23 02:53:30;;;;;;;16.08;7.22;;;;;;;-142.75;100.00;76241.56;5020281;28;20079;-66
2022/11/23 02:55:55;;;;;;;16.23;8.07;;;;;;;-142.75;100.00;76231.72;5020718;28;20755;-66
2022/11/23 02:58:20;;;;;;;16.05;8.48;;;;;;;-142.75;100.00;76235.66;5019673;28;20113;-65
2022/11/23 03:00:45;;;;;;;17.90;8.10;;;;;;;-142.75;100.00;76231.72;5020974;28;20027;-66
2022/11/23 03:03:11;;;;;;;17.70;9.10;;;;;;;-142.75;100.00;76229.75;5018425;28;20711;-65
2022/11/23 03:05:36;;;;;;;18.10;8.37;;;;;;;-142.75;100.00;76221.88;5019936;28;20312;-66
2022/11/23 03:08:01;;;;;;;17.60;9.37;;;;;;;-142.75;100.00;76219.91;5019338;28;20294;-66
2022/11/23 03:10:27;;;;;;;18.00;9.35;;;;;;;-142.75;100.00;76223.84;5019658;28;20630;-65
2022/11/23 03:12:54;;;;;;;21.05;8.68;;;;;;;-142.75;100.00;76219.91;5020309;28;20053;-65
2022/11/23 03:15:19;;;;;;;17.60;8.77;;;;;;;-142.75;100.00;76202.19;5019916;28;20060;-65
2022/11/23 03:17:44;;;;;;;17.92;8.63;;;;;;;-142.75;100.00;76212.03;5018933;28;20112;-65
2022/11/23 03:20:10;;;;;;;20.30;8.82;;;;;;;-142.75;100.00;76206.13;5019678;28;20029;-65
2022/11/23 03:22:36;;;;;;;16.05;8.40;;;;;;;-142.75;100.00;76208.09;5019574;28;20029;-65
2022/11/23 03:25:01;;;;;;;18.58;9.13;;;;;;;-142.75;100.00;76208.09;5027808;28;20082;-65
2022/11/23 03:27:26;;;;;;;18.05;7.95;;;;;;;-142.75;100.00;76200.25;5038530;28;20133;-65
2022/11/23 03:29:52;;;;;;;13.93;8.68;;;;;;;-142.75;100.00;76202.19;5040360;28;20079;-65
2022/11/23 03:32:17;;;;;;;15.25;8.77;;;;;;;-142.75;100.00;76219.91;5039205;28;20744;-65
2022/11/23 03:34:42;;;;;;;18.30;8.52;;;;;;;-142.75;100.00;76204.16;5039081;28;20036;-65
2022/11/23 03:37:08;;;;;;;18.60;7.25;;;;;;;-142.75;100.00;76202.19;5025427;28;20033;-65
2022/11/23 03:39:33;;;;;;;13.38;7.70;;;;;;;-142.75;100.00;76200.25;5019494;28;20040;-65
2022/11/23 03:41:58;;;;;;;11.60;6.97;;;;;;;-142.75;100.00;76202.19;5019434;28;20033;-65
2022/11/23 03:44:24;;;;;;;11.65;7.15;;;;;;;-142.75;100.00;76194.34;5029004;28;20060;-65
2022/11/23 03:46:49;;;;;;;14.02;7.05;;;;;;;-142.75;100.00;76194.34;5023403;28;20017;-65
2022/11/23 03:49:14;;;;;;;13.82;7.45;;;;;;;-142.75;100.00;76204.16;5019317;28;20071;-66
2022/11/23 03:51:40;;;;;;;13.05;7.57;;;;;;;-142.75;100.00;76202.19;5018921;28;20058;-65
2022/11/23 03:54:05;;;;;;;12.02;7.00;;;;;;;-142.75;100.00;76204.16;5019141;28;20033;-65
2022/11/23 03:56:31;;;;;;;17.90;7.80;;;;;;;-142.75;100.00;76188.44;5018788;28;20488;-65
2022/11/23 03:58:56;;;;;;;14.27;7.68;;;;;;;-142.75;100.00;76192.38;5019240;28;20649;-65
2022/11/23 04:01:21;;;;;;;14.53;7.73;;;;;;;-142.75;100.00;76196.31;5019099;28;20057;-65
2022/11/23 04:03:46;;;;;;;12.83;7.23;;;;;;;-142.75;100.00;76188.44;5017411;28;20272;-65
2022/11/23 04:06:12;;;;;;;23.80;8.57;;;;;;;-142.75;100.00;76192.38;5018631;28;20758;-65
2022/11/23 04:08:37;;;;;;;13.80;7.88;;;;;;;-142.75;100.00;76188.44;5016251;28;20298;-65
2022/11/23 04:11:02;;;;;;;19.15;8.77;;;;;;;-142.75;100.00;76190.41;5018034;28;20041;-65
2022/11/23 04:13:28;;;;;;;16.77;8.43;;;;;;;-142.75;100.00;76188.44;5018021;28;20128;-65
2022/11/23 04:15:53;;;;;;;14.25;7.95;;;;;;;-142.75;100.00;76186.47;5018337;28;20037;-66
2022/11/23 04:18:18;;;;;;;18.45;8.13;;;;;;;-142.75;100.00;76178.59;5017587;28;20475;-66
2022/11/23 04:20:43;;;;;;;14.45;7.40;;;;;;;-142.75;100.00;76176.63;5018050;28;20037;-65
2022/11/23 04:23:09;;;;;;;18.15;8.07;;;;;;;-142.75;100.00;76182.53;5017888;28;20037;-66
2022/11/23 04:25:34;;;;;;;19.13;8.68;;;;;;;-142.75;100.00;76172.69;5017942;28;20710;-64
2022/11/23 04:27:59;;;;;;;15.02;6.90;;;;;;;-142.75;100.00;76190.41;5017804;28;20084;-66
2022/11/23 04:30:25;;;;;;;10.20;6.35;;;;;;;-142.75;100.00;76180.56;5018249;28;20626;-66
2022/11/23 04:32:50;;;;;;;15.70;6.47;;;;;;;-142.75;100.00;76184.50;5016944;28;20037;-67
2022/11/23 04:35:15;;;;;;;12.70;6.32;;;;;;;-142.75;100.00;76180.56;5018054;28;20025;-65
2022/11/23 04:37:41;;;;;;;12.27;6.20;;;;;;;-142.75;100.00;76178.59;5017159;28;20030;-65
2022/11/23 04:40:07;;;;;;;10.02;5.70;;;;;;;-142.75;100.00;76164.81;5017982;28;20026;-65
2022/11/23 04:42:32;;;;;;;;;;;;;;;-142.75;100.00;76166.78;5018437;28;20048;-65
2022/11/23 04:44:57;;;;;;;16.27;5.47;;;;;;;-142.75;100.00;76180.56;5019273;28;20454;-65
2022/11/23 04:47:23;;;;;;;11.30;4.50;;;;;;;-142.75;100.00;76174.66;5019213;28;20505;-65
2022/11/23 04:49:49;;;;;;;18.00;5.05;;;;;;;-142.75;100.00;76188.44;5020282;28;20314;-66
2022/11/23 04:52:14;;;;;;;13.32;5.13;;;;;;;-142.75;100.00;76188.44;5020208;28;20104;-65
2022/11/23 04:54:40;;;;;;;13.13;4.88;;;;;;;-142.75;100.00;76172.69;5020157;28;20127;-65
2022/11/23 04:57:05;;;;;;;9.88;4.68;;;;;;;-142.75;100.00;76176.63;5018844;28;20036;-65
2022/11/23 04:59:30;;;;;;;10.55;6.05;;;;;;;-142.75;100.00;76176.63;5019592;28;20417;-65
2022/11/23 05:01:56;;;;;;;11.65;5.32;;;;;;;-142.75;100.00;76196.31;5019983;28;21810;-66
2022/11/23 05:04:21;;;;;;;11.68;5.78;;;;;;;-142.75;100.00;76186.47;5042445;22;20040;-65
2022/11/23 05:06:46;;;;;;;12.18;5.93;;;;;;;-142.75;100.00;76194.34;5021668;28;20100;-67
2022/11/23 05:09:12;;;;;;;14.95;5.93;;;;;;;-142.75;100.00;76206.13;5024169;28;20033;-66
2022/11/23 05:11:37;;;;;;;13.75;6.05;;;;;;;-142.75;100.00;76202.19;5022870;28;20033;-67
2022/11/23 05:14:03;;;;;;;12.03;6.47;;;;;;;-142.75;100.00;76202.19;5022758;28;20025;-65
2022/11/23 05:16:28;;;;;;;12.25;5.75;;;;;;;-142.75;100.00;76200.25;5023958;28;20284;-68
2022/11/23 05:18:53;;;;;;;9.02;4.93;;;;;;;-142.75;100.00;76225.81;5023822;28;20060;-65
2022/11/23 05:21:19;;;;;;;10.93;6.65;;;;;;;-142.75;100.00;76204.16;5023985;28;20033;-66
2022/11/23 05:23:44;;;;;;;16.48;5.80;;;;;;;-142.75;100.00;76223.84;5023980;28;20446;-66
2022/11/23 05:26:09;;;;;;;17.88;6.30;;;;;;;-142.75;100.00;76227.78;5022660;28;20124;-67
2022/11/23 05:28:36;;;;;;;17.35;6.55;;;;;;;-142.75;100.00;76229.75;5021320;28;20056;-66
2022/11/23 05:31:02;;;;;;;12.23;5.22;;;;;;;-142.75;100.00;76208.09;5024119;28;20079;-67
2022/11/23 05:33:27;;;;;;;13.90;6.18;;;;;;;-142.75;100.00;76215.97;5024059;28;20422;-66
2022/11/23 05:35:53;;;;;;;14.32;4.95;;;;;;;-142.75;100.00;76225.81;5041267;28;20043;-66
2022/11/23 05:38:18;;;;;;;10.35;4.40;;;;;;;-142.75;100.00;76223.84;5042755;28;20021;-66
2022/11/23 05:40:44;;;;;;;11.23;3.80;;;;;;;-142.75;100.00;76251.41;5043800;28;20909;-66
2022/11/23 05:43:09;;;;;;;8.70;3.10;;;;;;;-142.75;100.00;76245.50;5043295;28;20032;-67
2022/11/23 05:45:35;;;;;;;14.18;3.97;;;;;;;-142.75;100.00;76245.50;5043280;28;20402;-67
2022/11/23 05:48:00;;;;;;;14.63;3.33;;;;;;;-142.75;100.00;76243.53;5041703;28;20124;-66
2022/11/23 05:50:27;;;;;;;12.82;2.92;;;;;;;-142.75;100.00;76247.47;5041629;28;20463;-66
2022/11/23 05:52:55;;;;;;;6.40;2.08;;;;;;;-142.75;100.00;76253.38;5023225;28;20628;-66
2022/11/23 05:55:20;;;;;;;7.15;1.67;;;;;;;-142.75;100.00;76263.22;5023126;28;20029;-64
2022/11/23 05:57:46;;;;;;;9.73;2.03;;;;;;;-142.75;100.00;76259.28;5023015;28;20036;-66
2022/11/23 06:00:11;;;;;;;7.93;1.85;;;;;;;-142.75;100.00;76271.09;5023219;28;20393;-66
2022/11/23 06:02:37;;;;;;;6.93;1.45;;;;;;;-142.75;100.00;76265.19;5023073;28;20505;-67
2022/11/23 06:05:03;;;;;;;5.25;1.65;;;;;;;-142.75;100.00;76277.00;5036069;28;20036;-65
2022/11/23 06:07:30;;;;;;;;;;;;;;;-142.75;100.00;76259.28;5042668;28;20406;-67
2022/11/23 06:09:55;;;;;;;8.40;1.80;;;;;;;-142.75;100.00;76251.41;5043217;28;19917;-66
2022/11/23 06:12:21;;;;;;;5.97;1.50;;;;;;;-142.75;100.00;76275.03;5042683;28;20040;-64
2022/11/23 06:14:46;;;;;;;10.32;1.92;;;;;;;-142.75;100.00;76271.09;5043306;28;20028;-66
2022/11/23 06:17:11;;;;;;;10.40;2.70;;;;;;;-142.75;100.00;76294.72;5037123;28;20052;-65
2022/11/23 06:19:37;;;;;;;12.85;1.98;;;;;;;-142.75;100.00;76278.97;5023102;28;20037;-66
2022/11/23 06:22:02;;;;;;;10.70;1.73;;;;;;;-142.75;100.00;76286.84;5023037;28;20025;-66
2022/11/23 06:24:27;;;;;;;6.75;2.05;;;;;;;-142.75;100.00;76278.97;5023086;28;20143;-67
2022/11/23 06:26:53;;;;;;;15.17;2.50;;;;;;;-142.75;100.00;76277.00;5022205;28;20533;-66
2022/11/23 06:29:19;;;;;;;10.82;2.28;;;;;;;-142.75;100.00;76282.91;5019646;28;20358;-66
2022/11/23 06:31:45;;;;;;;9.93;1.80;;;;;;;-142.75;100.00;76278.97;5021113;28;20044;-65
2022/11/23 06:34:10;;;;;;;10.00;2.83;;;;;;;-142.75;100.00;76282.91;5023314;28;20033;-66
2022/11/23 06:36:35;;;;;;;14.55;3.80;;;;;;;-142.75;100.00;76296.69;5020790;28;20127;-66
2022/11/23 06:39:01;;;;;;;14.93;3.15;;;;;;;-142.75;100.00;76304.56;5021490;28;20555;-65
2022/11/23 06:41:26;;;;;;;12.67;2.60;;;;;;;-142.75;100.00;76302.59;5022329;28;20095;-66
2022/11/23 06:43:52;;;;;;;14.70;2.10;;;;;;;-142.75;100.00;76306.53;5021244;28;20352;-65
2022/11/23 06:46:18;;;;;;;8.55;1.63;;;;;;;-142.75;100.00;76296.69;5020642;28;20029;-65
2022/11/23 06:48:45;;;;;;;9.18;2.35;;;;;;;-142.75;100.00;76296.69;5041481;28;20138;-64
2022/11/23 06:51:10;;;;;;;12.17;1.83;;;;;;;-142.75;100.00;76290.78;5042524;28;20033;-65
2022/11/23 06:53:36;;;;;;;14.07;2.42;;;;;;;-142.75;100.00;76298.66;5042404;28;20509;-65
2022/11/23 06:56:01;;;;;;;15.00;2.45;;;;;;;-142.75;100.00;76306.53;5042433;28;20140;-67
2022/11/23 06:58:27;;;;;;;13.77;2.95;;;;;;;-142.75;100.00;76302.59;5041029;28;20024;-66
2022/11/23 07:00:53;;;;;;;13.95;2.10;;;;;;;-142.75;100.00;76298.66;5042189;28;20037;-65
2022/11/23 07:03:23;;;;;;;16.10;1.90;;;;;;;-142.75;100.00;76298.66;5041862;28;20056;-67
2022/11/23 07:05:48;;;;;;;8.10;1.57;;;;;;;-142.75;100.00;76302.59;5042185;28;20418;-66
2022/11/23 07:08:14;;;;;;;12.38;2.50;;;;;;;-142.75;100.00;76304.56;5025410;28;20026;-63
2022/11/23 07:10:39;;;;;;;12.95;2.25;;;;;;;-142.75;100.00;76308.50;5021842;28;20026;-65
2022/11/23 07:13:07;;;;;;;5.65;1.50;;;;;;;-142.75;100.00;76302.59;5020773;28;20076;-67
2022/11/23 07:15:32;;;;;;;7.93;1.97;;;;;;;-142.75;100.00;76322.28;5022004;28;20399;-67
2022/11/23 07:17:58;;;;;;;10.18;2.00;;;;;;;-142.75;100.00;76314.41;5021201;28;20029;-67
2022/11/23 07:20:23;;;;;;;9.82;1.98;;;;;;;-142.75;100.00;76312.44;5021538;28;20025;-67
2022/11/23 07:22:59;;;;;;;7.85;2.53;;;;;;;-142.75;100.00;76320.31;5020815;28;20590;-65
2022/11/23 07:25:24;;;;;;;9.97;1.90;;;;;;;-142.75;100.00;76306.53;5020303;28;20134;-66
2022/11/23 07:27:57;;;;;;;20.77;2.28;;;;;;;-142.75;100.00;76300.63;5020905;28;20479;-68
2022/11/23 07:30:24;;;;;;;12.20;2.28;;;;;;;-142.75;100.00;76306.53;5019068;28;20033;-67
2022/11/23 07:32:51;;;;;;;9.55;1.75;;;;;;;-142.75;100.00;76298.66;5021222;28;20036;-71
2022/11/23 07:35:17;;;;;;;16.25;2.65;;;;;;;-142.75;100.00;76302.59;5022436;28;20033;-69
2022/11/23 07:37:42;;;;;;;12.37;2.23;;;;;;;-142.75;100.00;76306.53;5018380;28;20017;-68
2022/11/23 07:40:08;;;;;;;9.70;2.10;;;;;;;-142.75;100.00;76312.44;5019607;28;20029;-69
2022/11/23 07:42:34;;;;;;;9.07;2.20;;;;;;;-142.75;100.00;76326.22;5021293;28;20415;-68
2022/11/23 07:44:59;;;;;;;10.32;2.47;;;;;;;-142.75;100.00;76312.44;5020142;28;20061;-70
2022/11/23 07:47:24;;;;;;;13.95;2.92;;;;;;;-142.75;100.00;76326.22;5033783;28;20144;-69
2022/11/23 07:49:50;;;;;;;13.55;2.28;;;;;;;-142.75;100.00;76310.47;5041427;28;20031;-66
2022/11/23 07:52:15;;;;;;;13.50;3.40;;;;;;;-142.75;100.00;76308.50;5039780;28;20025;-70
2022/11/23 07:54:40;;;;;;;9.68;2.80;;;;;;;-142.75;100.00;76330.16;5039000;28;20064;-71
2022/11/23 07:57:05;;;;;;;11.03;1.87;;;;;;;-142.75;100.00;76343.94;5030938;28;20072;-68
2022/11/23 07:59:31;;;;;;;12.77;2.22;;;;;;;-142.75;100.00;76347.84;5020891;28;20278;-67
2022/11/23 08:01:56;;;;;;;8.15;2.08;;;;;;;-142.75;100.00;76336.06;5020903;28;20033;-69
2022/11/23 08:04:22;;;;;;;10.18;2.50;;;;;;;-142.75;100.00;76347.84;5018158;28;20122;-67
2022/11/23 08:06:47;;;;;;;17.75;3.08;;;;;;;-142.75;100.00;76349.81;5018627;28;20033;-69
2022/11/23 08:09:12;;;;;;;12.80;3.17;;;;;;;-142.75;100.00;76345.91;5022289;28;20037;-70
2022/11/23 08:11:38;;;;;;;11.82;3.08;;;;;;;-142.75;100.00;76318.34;5021517;28;20064;-69
2022/11/23 08:14:03;;;;;;;15.73;3.88;;;;;;;-142.75;100.00;76330.16;5020350;28;20034;-67
2022/11/23 08:16:29;;;;;;;10.57;2.20;;;;;;;-142.75;100.00;76334.09;5019796;28;20355;-71
2022/11/23 08:18:55;;;;;;;16.67;3.53;;;;;;;-142.75;100.00;76314.41;5019698;28;20065;-69
2022/11/23 08:21:21;;;;;;;11.52;2.92;;;;;;;-142.75;100.00;76322.28;4973678;28;20267;-70
2022/11/23 08:23:46;;;;;;;11.50;2.80;;;;;;;-142.75;100.00;76322.28;4967392;28;20351;-70
2022/11/23 08:26:12;;;;;;;9.98;2.30;;;;;;;-142.75;100.00;76316.38;4967036;28;20447;-70
2022/11/23 08:28:38;;;;;;;7.63;1.70;;;;;;;-142.75;100.00;76304.56;4980722;28;20411;-69
2022/11/23 08:31:10;;;;;;;15.48;2.33;;;;;;;-142.75;100.00;76288.81;4969757;28;20033;-70
2022/11/23 08:33:36;;;;;;;12.73;2.33;;;;;;;-142.75;100.00;76290.78;4968665;28;20043;-71
2022/11/23 08:36:04;;;;;;;12.15;2.70;;;;;;;-142.75;100.00;76263.22;5007435;28;20476;-70
2022/11/23 08:38:29;;;;;;;12.23;1.77;;;;;;;-142.75;100.00;76255.34;5019088;28;20025;-70
2022/11/23 08:40:59;;;;;;;10.10;2.50;;;;;;;-142.75;100.00;76251.41;5018414;28;20036;-67
2022/11/23 08:43:25;;;;;;;15.07;3.13;;;;;;;-142.75;100.00;76239.59;5018404;28;20029;-71
2022/11/23 08:45:59;;;;;;;6.38;1.90;;;;;;;-142.75;100.00;76251.41;5019989;28;20549;-68
2022/11/23 08:48:24;;;;;;;13.15;1.98;;;;;;;-142.75;100.00;76208.09;5017384;28;20075;-68
2022/11/23 08:50:50;;;;;;;5.03;1.73;;;;;;;-142.75;100.00;76149.06;5020035;28;20029;-68
2022/11/23 08:53:16;;;;;;;14.07;2.22;;;;;;;-142.75;100.00;76101.81;5017987;28;20041;-70
2022/11/23 08:55:42;;;;;;;;;;;;;;;-142.75;100.00;76082.13;5019379;28;20028;-69
2022/11/23 08:58:07;;;;;;;13.20;1.88;;;;;;;-142.75;100.00;76070.34;4993678;28;20079;-71
2022/11/23 09:00:33;;;;;;;15.68;1.67;;;;;;;-142.75;100.00;76086.06;4983304;28;20033;-71
2022/11/23 09:02:59;;;;;;;9.57;1.73;;;;;;;-142.75;100.00;76052.63;4982313;28;20052;-70
2022/11/23 09:05:25;;;;;;;8.57;1.88;;;;;;;-142.75;100.00;76042.78;4974623;28;20311;-71
2022/11/23 09:07:51;;;;;;;10.50;2.08;;;;;;;-142.75;100.00;76027.03;5014905;28;20035;-68
2022/11/23 09:10:17;;;;;;;9.43;1.73;;;;;;;-142.75;100.00;76023.09;5025150;28;20022;-71
2022/11/23 09:12:42;;;;;;;8.38;2.05;;;;;;;-142.75;100.00;76027.03;5018438;28;20124;-70
2022/11/23 09:15:08;;;;;;;11.38;1.77;;;;;;;-142.75;100.00;75995.53;5019860;28;20029;-70
2022/11/23 09:17:34;;;;;;;9.95;1.60;;;;;;;-142.75;100.00;75948.31;5018861;28;20080;-70
2022/11/23 09:19:59;;;;;;;14.38;2.28;;;;;;;-142.75;100.00;75971.91;5014915;28;20068;-68
2022/11/23 09:22:25;;;;;;;15.93;3.35;;;;;;;-142.75;100.00;75993.56;5018962;28;20552;-67
2022/11/23 09:24:51;;;;;;;11.13;2.30;;;;;;;-142.75;100.00;75985.69;5018408;28;20433;-68
2022/11/23 09:27:16;;;;;;;7.68;1.60;;;;;;;-142.75;100.00;75954.22;5018685;28;20029;-71
2022/11/23 09:29:42;;;;;;;12.40;1.95;;;;;;;-142.75;100.00;75969.94;5019769;28;20104;-67
2022/11/23 09:32:07;;;;;;;13.85;1.95;;;;;;;-142.75;100.00;75971.91;5019831;28;20501;-69
2022/11/23 09:34:32;;;;;;;10.30;1.47;;;;;;;-142.75;100.00;75962.09;5019958;28;20025;-70
2022/11/23 09:36:58;;;;;;;11.98;3.00;;;;;;;-142.75;100.00;75952.25;5018260;28;20288;-69
2022/11/23 09:39:24;;;;;;;16.67;2.55;;;;;;;-142.75;100.00;75956.19;5027954;28;20021;-68
2022/11/23 09:42:15;;;;;;;16.30;1.70;;;;;;;-142.75;100.00;75960.13;5026963;28;20476;-70
2022/11/23 09:45:22;;;;;;;12.30;2.00;;;;;;;-142.75;100.00;75938.47;5020078;28;20119;-69
2022/11/23 09:48:16;;;;;;;10.10;1.92;;;;;;;-142.75;100.00;75975.84;4957902;28;20038;-69
2022/11/23 09:50:49;;;;;;;5.95;1.40;;;;;;;-142.75;100.00;75956.19;5018030;28;20489;-68
2022/11/23 09:53:21;;;;;;;13.95;2.00;;;;;;;-142.75;100.00;75977.81;5022058;28;20468;-70
2022/11/23 09:55:49;;;;;;;8.70;1.92;;;;;;;-142.75;100.00;76007.34;5040310;28;20128;-68
2022/11/23 09:58:21;;;;;;;9.32;1.95;;;;;;;-142.75;100.00;75999.47;5035569;28;20045;-67
2022/11/23 10:00:58;;;;;;;5.70;1.58;;;;;;;-142.75;100.00;76050.66;5041730;28;20033;-70
2022/11/23 10:03:23;;;;;;;10.75;1.75;;;;;;;-142.75;100.00;76046.72;5023050;28;20495;-69
2022/11/23 10:06:06;;;;;;;12.05;1.65;;;;;;;-142.75;100.00;76070.34;5036929;28;20033;-68
2022/11/23 10:08:34;;;;;;;14.18;2.55;;;;;;;-142.75;100.00;76072.31;5038676;28;20136;-70
2022/11/23 10:11:29;;;;;;;18.88;2.15;;;;;;;-142.75;100.00;76093.94;5024877;28;20565;-68
2022/11/23 10:13:55;;;;;;;10.32;1.30;;;;;;;-142.75;100.00;76164.81;5022089;28;20034;-68
2022/11/23 10:16:45;;;;;;;9.73;2.13;;;;;;;-142.75;100.00;76196.31;5023109;28;20021;-68
2022/11/23 10:19:13;;;;;;;8.77;1.85;;;;;;;-142.75;100.00;76204.16;5025259;28;20538;-72
2022/11/23 10:21:50;;;;;;;6.30;1.88;;;;;;;-142.75;100.00;76184.50;5041853;28;20128;-70
2022/11/23 10:24:18;;;;;;;9.38;1.75;;;;;;;-142.75;100.00;76168.75;5032034;28;20520;-71
2022/11/23 10:26:46;;;;;;;7.65;1.65;;;;;;;-142.75;100.00;76160.88;5038364;28;20176;-69
2022/11/23 10:29:30;;;;;;;18.85;2.40;;;;;;;-142.75;100.00;76204.16;5026739;28;20629;-71
2022/11/23 10:31:56;;;;;;;10.95;2.63;;;;;;;-142.75;100.00;76239.59;5039017;28;20108;-71
2022/11/23 10:34:43;;;;;;;7.32;1.92;;;;;;;-142.75;100.00;76290.78;5021123;28;20027;-70
2022/11/23 10:37:10;;;;;;;;;;;;;;;-142.75;100.00;76326.22;5036984;28;20383;-70
2022/11/23 10:39:36;;;;;;;16.35;2.17;;;;;;;-142.75;100.00;76294.72;5027909;28;19916;-69
2022/11/23 10:42:17;;;;;;;8.45;2.42;;;;;;;-142.75;100.00;76280.94;5024215;28;20045;-71
2022/11/23 10:44:45;;;;;;;7.17;2.17;;;;;;;-142.75;100.00;76298.66;5023704;28;20041;-69
2022/11/23 10:47:10;;;;;;;9.47;2.43;;;;;;;-142.75;100.00;76296.69;5030233;28;20036;-70
2022/11/23 10:49:35;;;;;;;12.48;2.72;;;;;;;-142.75;100.00;76302.59;5031009;28;20029;-68
2022/11/23 10:52:24;;;;;;;9.82;2.10;;;;;;;-142.75;100.00;76288.81;5023803;28;20028;-71
2022/11/23 10:54:54;;;;;;;10.40;2.37;;;;;;;-142.75;100.00;76251.41;5032805;28;20092;-71
2022/11/23 10:57:29;;;;;;;10.27;2.10;;;;;;;-142.75;100.00;76257.31;5039899;28;20032;-71
2022/11/23 11:00:15;;;;;;;9.27;1.85;;;;;;;-142.75;100.00;76184.50;5040890;28;20407;-70
2022/11/23 11:05:47;;;;;;;5.60;1.88;;;;;;;-142.75;100.00;76133.31;5037037;28;20064;-68
2022/11/23 11:08:16;;;;;;;9.40;1.83;;;;;;;-142.75;100.00;76078.19;5041161;28;20483;-67